sensor_id;sensor_type;location;lat;lon;timestamp;P1;durP1;ratioP1;P2;durP2;ratioP2
51368;SDS011;37459;51.416;5.502;2022-12-18T00:01:57;57.65;;;25.75;;
51368;SDS011;37459;51.416;5.502;2022-12-18T00:04:25;55.67;;;26.33;;
51368;SDS011;37459;51.416;5.502;2022-12-18T00:06:54;51.75;;;24.98;;
51368;SDS011;37459;51.416;5.502;2022-12-18T00:09:20;57.10;;;26.48;;
51368;SDS011;37459;51.416;5.502;2022-12-18T00:11:47;58.42;;;25.83;;
51368;SDS011;37459;51.416;5.502;2022-12-18T00:14:14;54.00;;;25.70;;
51368;SDS011;37459;51.416;5.502;2022-12-18T00:16:42;52.22;;;25.23;;
51368;SDS011;37459;51.416;5.502;2022-12-18T00:19:10;51.17;;;24.48;;
51368;SDS011;37459;51.416;5.502;2022-12-18T00:21:37;54.65;;;25.80;;
51368;SDS011;37459;51.416;5.502;2022-12-18T00:24:07;55.22;;;24.80;;
51368;SDS011;37459;51.416;5.502;2022-12-18T00:26:35;57.25;;;25.42;;
51368;SDS011;37459;51.416;5.502;2022-12-18T00:29:04;55.15;;;25.48;;
51368;SDS011;37459;51.416;5.502;2022-12-18T00:31:32;51.83;;;23.75;;
51368;SDS011;37459;51.416;5.502;2022-12-18T00:33:59;50.63;;;23.95;;
51368;SDS011;37459;51.416;5.502;2022-12-18T00:36:26;56.72;;;25.92;;
51368;SDS011;37459;51.416;5.502;2022-12-18T00:38:54;50.05;;;23.75;;
51368;SDS011;37459;51.416;5.502;2022-12-18T00:41:24;51.47;;;25.23;;
51368;SDS011;37459;51.416;5.502;2022-12-18T00:44:10;55.53;;;25.15;;
51368;SDS011;37459;51.416;5.502;2022-12-18T00:46:38;56.67;;;24.23;;
51368;SDS011;37459;51.416;5.502;2022-12-18T00:49:04;59.60;;;25.05;;
51368;SDS011;37459;51.416;5.502;2022-12-18T00:51:31;55.95;;;26.00;;
51368;SDS011;37459;51.416;5.502;2022-12-18T00:53:58;53.28;;;25.75;;
51368;SDS011;37459;51.416;5.502;2022-12-18T00:56:26;52.22;;;24.42;;
51368;SDS011;37459;51.416;5.502;2022-12-18T00:58:53;55.42;;;25.23;;
51368;SDS011;37459;51.416;5.502;2022-12-18T01:01:19;54.03;;;24.98;;
51368;SDS011;37459;51.416;5.502;2022-12-18T01:03:46;50.63;;;23.55;;
51368;SDS011;37459;51.416;5.502;2022-12-18T01:06:13;52.13;;;24.13;;
51368;SDS011;37459;51.416;5.502;2022-12-18T01:08:41;50.35;;;23.67;;
51368;SDS011;37459;51.416;5.502;2022-12-18T01:11:08;52.22;;;24.98;;
51368;SDS011;37459;51.416;5.502;2022-12-18T01:13:38;49.33;;;24.40;;
51368;SDS011;37459;51.416;5.502;2022-12-18T01:16:05;55.75;;;25.08;;
51368;SDS011;37459;51.416;5.502;2022-12-18T01:18:32;61.15;;;25.88;;
51368;SDS011;37459;51.416;5.502;2022-12-18T01:20:58;51.67;;;24.70;;
51368;SDS011;37459;51.416;5.502;2022-12-18T01:23:25;52.03;;;24.38;;
51368;SDS011;37459;51.416;5.502;2022-12-18T01:25:52;47.28;;;23.48;;
51368;SDS011;37459;51.416;5.502;2022-12-18T01:28:19;53.80;;;24.65;;
51368;SDS011;37459;51.416;5.502;2022-12-18T01:30:47;49.58;;;23.17;;
51368;SDS011;37459;51.416;5.502;2022-12-18T01:33:14;54.78;;;23.65;;
51368;SDS011;37459;51.416;5.502;2022-12-18T01:35:40;50.00;;;22.63;;
51368;SDS011;37459;51.416;5.502;2022-12-18T01:38:08;50.28;;;23.67;;
51368;SDS011;37459;51.416;5.502;2022-12-18T01:40:35;53.20;;;25.13;;
51368;SDS011;37459;51.416;5.502;2022-12-18T01:43:01;58.17;;;26.48;;
51368;SDS011;37459;51.416;5.502;2022-12-18T01:45:28;59.25;;;27.38;;
51368;SDS011;37459;51.416;5.502;2022-12-18T01:47:58;70.10;;;30.15;;
51368;SDS011;37459;51.416;5.502;2022-12-18T01:50:27;78.75;;;32.92;;
51368;SDS011;37459;51.416;5.502;2022-12-18T01:52:58;64.90;;;29.38;;
51368;SDS011;37459;51.416;5.502;2022-12-18T01:55:28;53.30;;;25.73;;
51368;SDS011;37459;51.416;5.502;2022-12-18T01:57:58;54.17;;;27.67;;
51368;SDS011;37459;51.416;5.502;2022-12-18T02:00:25;60.38;;;28.42;;
51368;SDS011;37459;51.416;5.502;2022-12-18T02:02:53;52.25;;;25.80;;
51368;SDS011;37459;51.416;5.502;2022-12-18T02:05:22;49.33;;;23.88;;
51368;SDS011;37459;51.416;5.502;2022-12-18T02:07:58;48.75;;;24.77;;
51368;SDS011;37459;51.416;5.502;2022-12-18T02:10:30;53.03;;;23.73;;
51368;SDS011;37459;51.416;5.502;2022-12-18T02:13:02;53.38;;;24.80;;
51368;SDS011;37459;51.416;5.502;2022-12-18T02:15:39;51.45;;;23.48;;
51368;SDS011;37459;51.416;5.502;2022-12-18T02:18:10;49.03;;;23.33;;
51368;SDS011;37459;51.416;5.502;2022-12-18T02:20:44;51.17;;;23.33;;
51368;SDS011;37459;51.416;5.502;2022-12-18T02:23:17;53.45;;;23.73;;
51368;SDS011;37459;51.416;5.502;2022-12-18T02:26:01;53.75;;;25.00;;
51368;SDS011;37459;51.416;5.502;2022-12-18T02:28:36;53.47;;;25.10;;
51368;SDS011;37459;51.416;5.502;2022-12-18T02:31:09;52.17;;;24.50;;
51368;SDS011;37459;51.416;5.502;2022-12-18T02:33:40;49.78;;;24.35;;
51368;SDS011;37459;51.416;5.502;2022-12-18T02:36:10;52.05;;;24.10;;
51368;SDS011;37459;51.416;5.502;2022-12-18T02:38:39;50.28;;;23.52;;
51368;SDS011;37459;51.416;5.502;2022-12-18T02:41:09;47.90;;;23.67;;
51368;SDS011;37459;51.416;5.502;2022-12-18T02:43:37;45.47;;;22.25;;
51368;SDS011;37459;51.416;5.502;2022-12-18T02:48:57;43.30;;;20.75;;
51368;SDS011;37459;51.416;5.502;2022-12-18T02:51:30;44.33;;;21.98;;
51368;SDS011;37459;51.416;5.502;2022-12-18T02:54:06;44.45;;;21.15;;
51368;SDS011;37459;51.416;5.502;2022-12-18T02:56:38;46.10;;;20.50;;
51368;SDS011;37459;51.416;5.502;2022-12-18T02:59:12;40.45;;;20.70;;
51368;SDS011;37459;51.416;5.502;2022-12-18T03:01:45;45.65;;;21.42;;
51368;SDS011;37459;51.416;5.502;2022-12-18T03:04:19;44.97;;;20.80;;
51368;SDS011;37459;51.416;5.502;2022-12-18T03:06:53;46.83;;;20.75;;
51368;SDS011;37459;51.416;5.502;2022-12-18T03:09:22;44.58;;;20.90;;
51368;SDS011;37459;51.416;5.502;2022-12-18T03:11:56;41.80;;;19.77;;
51368;SDS011;37459;51.416;5.502;2022-12-18T03:14:45;41.05;;;20.17;;
51368;SDS011;37459;51.416;5.502;2022-12-18T03:17:17;42.38;;;19.80;;
51368;SDS011;37459;51.416;5.502;2022-12-18T03:19:47;41.33;;;20.05;;
51368;SDS011;37459;51.416;5.502;2022-12-18T03:22:17;42.92;;;19.85;;
51368;SDS011;37459;51.416;5.502;2022-12-18T03:24:45;41.00;;;20.17;;
51368;SDS011;37459;51.416;5.502;2022-12-18T03:27:17;38.40;;;19.42;;
51368;SDS011;37459;51.416;5.502;2022-12-18T03:29:47;40.80;;;18.73;;
51368;SDS011;37459;51.416;5.502;2022-12-18T03:32:18;39.60;;;20.70;;
51368;SDS011;37459;51.416;5.502;2022-12-18T03:34:50;37.90;;;17.98;;
51368;SDS011;37459;51.416;5.502;2022-12-18T03:37:18;35.38;;;18.17;;
51368;SDS011;37459;51.416;5.502;2022-12-18T03:39:45;38.05;;;17.70;;
51368;SDS011;37459;51.416;5.502;2022-12-18T03:42:13;37.92;;;19.13;;
51368;SDS011;37459;51.416;5.502;2022-12-18T03:44:52;35.13;;;17.98;;
51368;SDS011;37459;51.416;5.502;2022-12-18T03:47:25;37.17;;;18.85;;
51368;SDS011;37459;51.416;5.502;2022-12-18T03:49:56;37.15;;;17.73;;
51368;SDS011;37459;51.416;5.502;2022-12-18T03:52:30;35.15;;;17.00;;
51368;SDS011;37459;51.416;5.502;2022-12-18T03:55:03;39.60;;;18.98;;
51368;SDS011;37459;51.416;5.502;2022-12-18T03:57:34;50.47;;;18.38;;
51368;SDS011;37459;51.416;5.502;2022-12-18T04:00:04;34.13;;;17.20;;
51368;SDS011;37459;51.416;5.502;2022-12-18T04:02:34;36.30;;;18.15;;
51368;SDS011;37459;51.416;5.502;2022-12-18T04:05:04;36.60;;;17.27;;
51368;SDS011;37459;51.416;5.502;2022-12-18T04:07:33;34.00;;;17.83;;
51368;SDS011;37459;51.416;5.502;2022-12-18T04:10:01;34.72;;;17.40;;
51368;SDS011;37459;51.416;5.502;2022-12-18T04:12:29;37.45;;;16.75;;
51368;SDS011;37459;51.416;5.502;2022-12-18T04:14:57;33.30;;;17.25;;
51368;SDS011;37459;51.416;5.502;2022-12-18T04:17:24;35.55;;;17.42;;
51368;SDS011;37459;51.416;5.502;2022-12-18T04:19:51;33.70;;;16.45;;
51368;SDS011;37459;51.416;5.502;2022-12-18T04:22:17;33.38;;;17.52;;
51368;SDS011;37459;51.416;5.502;2022-12-18T04:24:44;35.42;;;17.08;;
51368;SDS011;37459;51.416;5.502;2022-12-18T04:27:10;34.60;;;16.70;;
51368;SDS011;37459;51.416;5.502;2022-12-18T04:29:37;36.00;;;17.25;;
51368;SDS011;37459;51.416;5.502;2022-12-18T04:32:05;32.70;;;17.00;;
51368;SDS011;37459;51.416;5.502;2022-12-18T04:34:32;33.42;;;16.60;;
51368;SDS011;37459;51.416;5.502;2022-12-18T04:36:58;37.58;;;17.40;;
51368;SDS011;37459;51.416;5.502;2022-12-18T04:39:25;38.90;;;16.65;;
51368;SDS011;37459;51.416;5.502;2022-12-18T04:41:51;34.85;;;16.80;;
51368;SDS011;37459;51.416;5.502;2022-12-18T04:44:18;36.10;;;16.55;;
51368;SDS011;37459;51.416;5.502;2022-12-18T04:46:44;32.35;;;16.08;;
51368;SDS011;37459;51.416;5.502;2022-12-18T04:49:12;35.72;;;16.15;;
51368;SDS011;37459;51.416;5.502;2022-12-18T04:51:39;31.58;;;16.00;;
51368;SDS011;37459;51.416;5.502;2022-12-18T04:54:06;35.85;;;16.65;;
51368;SDS011;37459;51.416;5.502;2022-12-18T04:56:32;33.63;;;15.63;;
51368;SDS011;37459;51.416;5.502;2022-12-18T04:58:59;31.88;;;15.90;;
51368;SDS011;37459;51.416;5.502;2022-12-18T05:01:25;35.83;;;15.55;;
51368;SDS011;37459;51.416;5.502;2022-12-18T05:03:52;33.90;;;16.15;;
51368;SDS011;37459;51.416;5.502;2022-12-18T05:06:20;30.83;;;15.82;;
51368;SDS011;37459;51.416;5.502;2022-12-18T05:08:46;30.63;;;15.48;;
51368;SDS011;37459;51.416;5.502;2022-12-18T05:11:13;28.73;;;15.43;;
51368;SDS011;37459;51.416;5.502;2022-12-18T05:13:42;30.33;;;15.38;;
51368;SDS011;37459;51.416;5.502;2022-12-18T05:16:09;34.75;;;16.35;;
51368;SDS011;37459;51.416;5.502;2022-12-18T05:18:36;26.67;;;15.13;;
51368;SDS011;37459;51.416;5.502;2022-12-18T05:21:03;30.77;;;15.73;;
51368;SDS011;37459;51.416;5.502;2022-12-18T05:23:32;30.10;;;15.82;;
51368;SDS011;37459;51.416;5.502;2022-12-18T05:26:02;36.25;;;16.27;;
51368;SDS011;37459;51.416;5.502;2022-12-18T05:28:30;31.98;;;15.55;;
51368;SDS011;37459;51.416;5.502;2022-12-18T05:30:59;30.58;;;14.75;;
51368;SDS011;37459;51.416;5.502;2022-12-18T05:33:28;29.58;;;15.95;;
51368;SDS011;37459;51.416;5.502;2022-12-18T05:35:57;29.23;;;14.95;;
51368;SDS011;37459;51.416;5.502;2022-12-18T05:38:28;32.67;;;15.48;;
51368;SDS011;37459;51.416;5.502;2022-12-18T05:40:56;32.13;;;15.00;;
51368;SDS011;37459;51.416;5.502;2022-12-18T05:43:23;30.73;;;14.50;;
51368;SDS011;37459;51.416;5.502;2022-12-18T05:45:50;28.92;;;15.18;;
51368;SDS011;37459;51.416;5.502;2022-12-18T05:48:18;32.67;;;15.18;;
51368;SDS011;37459;51.416;5.502;2022-12-18T05:50:45;28.05;;;15.30;;
51368;SDS011;37459;51.416;5.502;2022-12-18T05:53:13;26.90;;;14.50;;
51368;SDS011;37459;51.416;5.502;2022-12-18T05:55:40;27.98;;;14.02;;
51368;SDS011;37459;51.416;5.502;2022-12-18T05:58:10;26.95;;;14.85;;
51368;SDS011;37459;51.416;5.502;2022-12-18T06:00:39;29.45;;;15.45;;
51368;SDS011;37459;51.416;5.502;2022-12-18T06:03:07;31.02;;;15.98;;
51368;SDS011;37459;51.416;5.502;2022-12-18T06:05:37;28.77;;;14.68;;
51368;SDS011;37459;51.416;5.502;2022-12-18T06:08:04;31.65;;;15.07;;
51368;SDS011;37459;51.416;5.502;2022-12-18T06:10:32;27.38;;;14.07;;
51368;SDS011;37459;51.416;5.502;2022-12-18T06:12:59;30.73;;;15.00;;
51368;SDS011;37459;51.416;5.502;2022-12-18T06:15:27;31.58;;;15.43;;
51368;SDS011;37459;51.416;5.502;2022-12-18T06:17:53;29.88;;;16.13;;
51368;SDS011;37459;51.416;5.502;2022-12-18T06:20:20;33.83;;;15.45;;
51368;SDS011;37459;51.416;5.502;2022-12-18T06:22:46;31.92;;;15.63;;
51368;SDS011;37459;51.416;5.502;2022-12-18T06:25:13;32.17;;;15.75;;
51368;SDS011;37459;51.416;5.502;2022-12-18T06:27:40;31.85;;;15.25;;
51368;SDS011;37459;51.416;5.502;2022-12-18T06:30:07;29.33;;;14.52;;
51368;SDS011;37459;51.416;5.502;2022-12-18T06:32:36;32.63;;;15.57;;
51368;SDS011;37459;51.416;5.502;2022-12-18T06:35:03;33.25;;;16.08;;
51368;SDS011;37459;51.416;5.502;2022-12-18T06:37:30;27.85;;;14.40;;
51368;SDS011;37459;51.416;5.502;2022-12-18T06:39:57;27.35;;;13.95;;
51368;SDS011;37459;51.416;5.502;2022-12-18T06:42:24;35.30;;;15.35;;
51368;SDS011;37459;51.416;5.502;2022-12-18T06:44:51;32.85;;;14.25;;
51368;SDS011;37459;51.416;5.502;2022-12-18T06:47:17;33.10;;;14.95;;
51368;SDS011;37459;51.416;5.502;2022-12-18T06:49:45;29.50;;;14.68;;
51368;SDS011;37459;51.416;5.502;2022-12-18T06:52:12;27.60;;;14.20;;
51368;SDS011;37459;51.416;5.502;2022-12-18T06:54:41;28.90;;;14.05;;
51368;SDS011;37459;51.416;5.502;2022-12-18T06:57:07;28.48;;;14.32;;
51368;SDS011;37459;51.416;5.502;2022-12-18T06:59:34;31.45;;;15.35;;
51368;SDS011;37459;51.416;5.502;2022-12-18T07:02:01;26.98;;;14.38;;
51368;SDS011;37459;51.416;5.502;2022-12-18T07:04:27;29.83;;;15.32;;
51368;SDS011;37459;51.416;5.502;2022-12-18T07:06:56;27.90;;;14.23;;
51368;SDS011;37459;51.416;5.502;2022-12-18T07:09:23;30.05;;;15.20;;
51368;SDS011;37459;51.416;5.502;2022-12-18T07:11:49;29.42;;;14.27;;
51368;SDS011;37459;51.416;5.502;2022-12-18T07:14:16;29.02;;;14.35;;
51368;SDS011;37459;51.416;5.502;2022-12-18T07:16:42;30.92;;;14.18;;
51368;SDS011;37459;51.416;5.502;2022-12-18T07:19:09;28.98;;;14.43;;
51368;SDS011;37459;51.416;5.502;2022-12-18T07:21:35;33.53;;;15.60;;
51368;SDS011;37459;51.416;5.502;2022-12-18T07:24:04;29.60;;;14.88;;
51368;SDS011;37459;51.416;5.502;2022-12-18T07:26:31;30.10;;;15.07;;
51368;SDS011;37459;51.416;5.502;2022-12-18T07:28:58;28.33;;;15.32;;
51368;SDS011;37459;51.416;5.502;2022-12-18T07:31:24;32.42;;;15.30;;
51368;SDS011;37459;51.416;5.502;2022-12-18T07:33:52;32.33;;;15.10;;
51368;SDS011;37459;51.416;5.502;2022-12-18T07:36:19;30.27;;;15.50;;
51368;SDS011;37459;51.416;5.502;2022-12-18T07:38:49;33.90;;;15.98;;
51368;SDS011;37459;51.416;5.502;2022-12-18T07:41:18;31.17;;;15.77;;
51368;SDS011;37459;51.416;5.502;2022-12-18T07:43:45;32.45;;;16.67;;
51368;SDS011;37459;51.416;5.502;2022-12-18T07:46:12;31.95;;;16.25;;
51368;SDS011;37459;51.416;5.502;2022-12-18T07:48:40;32.80;;;16.50;;
51368;SDS011;37459;51.416;5.502;2022-12-18T07:51:07;30.38;;;16.02;;
51368;SDS011;37459;51.416;5.502;2022-12-18T07:53:37;33.45;;;16.05;;
51368;SDS011;37459;51.416;5.502;2022-12-18T07:56:06;33.45;;;15.57;;
51368;SDS011;37459;51.416;5.502;2022-12-18T07:58:35;33.75;;;16.77;;
51368;SDS011;37459;51.416;5.502;2022-12-18T08:01:03;29.45;;;15.63;;
51368;SDS011;37459;51.416;5.502;2022-12-18T08:03:30;31.27;;;15.75;;
51368;SDS011;37459;51.416;5.502;2022-12-18T08:05:58;34.15;;;16.45;;
51368;SDS011;37459;51.416;5.502;2022-12-18T08:08:25;32.70;;;16.25;;
51368;SDS011;37459;51.416;5.502;2022-12-18T08:10:51;33.33;;;16.90;;
51368;SDS011;37459;51.416;5.502;2022-12-18T08:13:18;33.75;;;17.10;;
51368;SDS011;37459;51.416;5.502;2022-12-18T08:15:46;36.08;;;17.10;;
51368;SDS011;37459;51.416;5.502;2022-12-18T08:18:12;32.83;;;17.00;;
51368;SDS011;37459;51.416;5.502;2022-12-18T08:20:39;33.72;;;16.90;;
51368;SDS011;37459;51.416;5.502;2022-12-18T08:23:08;33.47;;;16.67;;
51368;SDS011;37459;51.416;5.502;2022-12-18T08:25:35;35.03;;;16.73;;
51368;SDS011;37459;51.416;5.502;2022-12-18T08:28:01;34.17;;;17.95;;
51368;SDS011;37459;51.416;5.502;2022-12-18T08:30:28;34.05;;;17.15;;
51368;SDS011;37459;51.416;5.502;2022-12-18T08:32:56;35.78;;;17.33;;
51368;SDS011;37459;51.416;5.502;2022-12-18T08:35:23;33.00;;;16.55;;
51368;SDS011;37459;51.416;5.502;2022-12-18T08:37:49;33.05;;;17.73;;
51368;SDS011;37459;51.416;5.502;2022-12-18T08:40:16;34.70;;;16.90;;
51368;SDS011;37459;51.416;5.502;2022-12-18T08:42:42;31.73;;;16.50;;
51368;SDS011;37459;51.416;5.502;2022-12-18T08:45:26;32.83;;;17.23;;
51368;SDS011;37459;51.416;5.502;2022-12-18T08:47:53;33.65;;;17.33;;
51368;SDS011;37459;51.416;5.502;2022-12-18T08:50:21;36.17;;;17.83;;
51368;SDS011;37459;51.416;5.502;2022-12-18T08:52:48;39.03;;;19.02;;
51368;SDS011;37459;51.416;5.502;2022-12-18T08:55:14;35.42;;;17.08;;
51368;SDS011;37459;51.416;5.502;2022-12-18T08:57:41;35.05;;;17.88;;
51368;SDS011;37459;51.416;5.502;2022-12-18T09:00:08;39.25;;;19.10;;
51368;SDS011;37459;51.416;5.502;2022-12-18T09:02:35;37.72;;;19.45;;
51368;SDS011;37459;51.416;5.502;2022-12-18T09:05:04;40.33;;;19.00;;
51368;SDS011;37459;51.416;5.502;2022-12-18T09:07:31;39.55;;;18.88;;
51368;SDS011;37459;51.416;5.502;2022-12-18T09:09:57;37.65;;;19.65;;
51368;SDS011;37459;51.416;5.502;2022-12-18T09:12:24;37.42;;;20.25;;
51368;SDS011;37459;51.416;5.502;2022-12-18T09:14:51;39.63;;;19.52;;
51368;SDS011;37459;51.416;5.502;2022-12-18T09:17:17;39.45;;;19.25;;
51368;SDS011;37459;51.416;5.502;2022-12-18T09:19:44;44.90;;;21.70;;
51368;SDS011;37459;51.416;5.502;2022-12-18T09:22:11;40.28;;;19.60;;
51368;SDS011;37459;51.416;5.502;2022-12-18T09:24:38;37.22;;;19.02;;
51368;SDS011;37459;51.416;5.502;2022-12-18T09:27:04;39.42;;;19.63;;
51368;SDS011;37459;51.416;5.502;2022-12-18T09:29:31;39.78;;;20.55;;
51368;SDS011;37459;51.416;5.502;2022-12-18T09:31:58;40.97;;;20.15;;
51368;SDS011;37459;51.416;5.502;2022-12-18T09:34:25;36.78;;;19.23;;
51368;SDS011;37459;51.416;5.502;2022-12-18T09:36:51;37.70;;;18.55;;
51368;SDS011;37459;51.416;5.502;2022-12-18T09:39:19;37.67;;;20.60;;
51368;SDS011;37459;51.416;5.502;2022-12-18T09:41:46;43.90;;;20.77;;
51368;SDS011;37459;51.416;5.502;2022-12-18T09:44:20;34.85;;;19.13;;
51368;SDS011;37459;51.416;5.502;2022-12-18T09:46:51;38.72;;;19.85;;
51368;SDS011;37459;51.416;5.502;2022-12-18T09:49:24;40.85;;;20.05;;
51368;SDS011;37459;51.416;5.502;2022-12-18T09:51:55;39.35;;;20.08;;
51368;SDS011;37459;51.416;5.502;2022-12-18T09:54:29;40.35;;;20.67;;
51368;SDS011;37459;51.416;5.502;2022-12-18T09:56:59;37.70;;;20.15;;
51368;SDS011;37459;51.416;5.502;2022-12-18T09:59:26;39.63;;;20.38;;
51368;SDS011;37459;51.416;5.502;2022-12-18T10:01:58;37.67;;;19.83;;
51368;SDS011;37459;51.416;5.502;2022-12-18T10:04:32;33.78;;;18.90;;
51368;SDS011;37459;51.416;5.502;2022-12-18T10:07:00;37.92;;;19.50;;
51368;SDS011;37459;51.416;5.502;2022-12-18T10:09:36;36.45;;;19.33;;
51368;SDS011;37459;51.416;5.502;2022-12-18T10:12:08;38.42;;;19.67;;
51368;SDS011;37459;51.416;5.502;2022-12-18T10:14:46;39.05;;;19.80;;
51368;SDS011;37459;51.416;5.502;2022-12-18T10:17:22;34.33;;;20.00;;
51368;SDS011;37459;51.416;5.502;2022-12-18T10:19:57;42.10;;;20.35;;
51368;SDS011;37459;51.416;5.502;2022-12-18T10:22:36;35.53;;;20.42;;
51368;SDS011;37459;51.416;5.502;2022-12-18T10:25:15;40.88;;;21.23;;
51368;SDS011;37459;51.416;5.502;2022-12-18T10:27:47;40.47;;;21.77;;
51368;SDS011;37459;51.416;5.502;2022-12-18T10:30:19;40.58;;;21.73;;
51368;SDS011;37459;51.416;5.502;2022-12-18T10:32:47;48.00;;;24.20;;
51368;SDS011;37459;51.416;5.502;2022-12-18T10:35:15;45.90;;;25.85;;
51368;SDS011;37459;51.416;5.502;2022-12-18T10:40:33;48.95;;;27.30;;
51368;SDS011;37459;51.416;5.502;2022-12-18T10:43:15;52.55;;;29.90;;
51368;SDS011;37459;51.416;5.502;2022-12-18T10:45:57;59.40;;;34.60;;
51368;SDS011;37459;51.416;5.502;2022-12-18T10:48:26;61.38;;;35.35;;
51368;SDS011;37459;51.416;5.502;2022-12-18T10:50:53;69.40;;;40.78;;
51368;SDS011;37459;51.416;5.502;2022-12-18T10:53:21;70.82;;;40.20;;
51368;SDS011;37459;51.416;5.502;2022-12-18T10:55:52;69.55;;;40.28;;
51368;SDS011;37459;51.416;5.502;2022-12-18T10:58:21;65.05;;;37.33;;
51368;SDS011;37459;51.416;5.502;2022-12-18T11:01:01;63.40;;;36.08;;
51368;SDS011;37459;51.416;5.502;2022-12-18T11:03:34;60.58;;;33.80;;
51368;SDS011;37459;51.416;5.502;2022-12-18T11:06:03;60.42;;;33.60;;
51368;SDS011;37459;51.416;5.502;2022-12-18T11:08:34;56.22;;;31.00;;
51368;SDS011;37459;51.416;5.502;2022-12-18T11:11:06;55.92;;;31.23;;
51368;SDS011;37459;51.416;5.502;2022-12-18T11:13:41;56.97;;;32.17;;
51368;SDS011;37459;51.416;5.502;2022-12-18T11:16:20;55.67;;;29.67;;
51368;SDS011;37459;51.416;5.502;2022-12-18T11:18:46;50.55;;;29.98;;
51368;SDS011;37459;51.416;5.502;2022-12-18T11:21:13;52.88;;;28.77;;
51368;SDS011;37459;51.416;5.502;2022-12-18T11:23:44;51.15;;;28.83;;
51368;SDS011;37459;51.416;5.502;2022-12-18T11:26:14;51.65;;;29.05;;
51368;SDS011;37459;51.416;5.502;2022-12-18T11:28:42;54.47;;;29.02;;
51368;SDS011;37459;51.416;5.502;2022-12-18T11:31:18;50.15;;;26.98;;
51368;SDS011;37459;51.416;5.502;2022-12-18T11:33:52;47.50;;;25.67;;
51368;SDS011;37459;51.416;5.502;2022-12-18T11:36:22;44.47;;;24.88;;
51368;SDS011;37459;51.416;5.502;2022-12-18T11:38:50;44.08;;;24.30;;
51368;SDS011;37459;51.416;5.502;2022-12-18T11:41:23;42.97;;;22.83;;
51368;SDS011;37459;51.416;5.502;2022-12-18T11:44:14;41.42;;;22.50;;
51368;SDS011;37459;51.416;5.502;2022-12-18T11:46:50;37.45;;;21.75;;
51368;SDS011;37459;51.416;5.502;2022-12-18T11:49:20;41.05;;;21.77;;
51368;SDS011;37459;51.416;5.502;2022-12-18T11:51:51;39.60;;;21.92;;
51368;SDS011;37459;51.416;5.502;2022-12-18T11:54:26;37.55;;;20.65;;
51368;SDS011;37459;51.416;5.502;2022-12-18T11:56:55;39.30;;;20.63;;
51368;SDS011;37459;51.416;5.502;2022-12-18T11:59:30;39.97;;;21.00;;
51368;SDS011;37459;51.416;5.502;2022-12-18T12:02:04;37.08;;;20.10;;
51368;SDS011;37459;51.416;5.502;2022-12-18T12:04:47;37.75;;;20.48;;
51368;SDS011;37459;51.416;5.502;2022-12-18T12:07:26;36.00;;;20.33;;
51368;SDS011;37459;51.416;5.502;2022-12-18T12:10:03;36.65;;;20.05;;
51368;SDS011;37459;51.416;5.502;2022-12-18T12:12:47;34.75;;;18.02;;
51368;SDS011;37459;51.416;5.502;2022-12-18T12:15:27;37.10;;;19.33;;
51368;SDS011;37459;51.416;5.502;2022-12-18T12:18:06;34.35;;;20.25;;
51368;SDS011;37459;51.416;5.502;2022-12-18T12:20:44;36.70;;;19.80;;
51368;SDS011;37459;51.416;5.502;2022-12-18T12:23:20;39.13;;;20.10;;
51368;SDS011;37459;51.416;5.502;2022-12-18T12:25:56;36.17;;;19.67;;
51368;SDS011;37459;51.416;5.502;2022-12-18T12:28:33;32.33;;;18.38;;
51368;SDS011;37459;51.416;5.502;2022-12-18T12:31:10;36.05;;;19.60;;
51368;SDS011;37459;51.416;5.502;2022-12-18T12:33:47;35.03;;;19.60;;
51368;SDS011;37459;51.416;5.502;2022-12-18T12:36:21;35.42;;;19.60;;
51368;SDS011;37459;51.416;5.502;2022-12-18T12:38:57;38.20;;;21.05;;
51368;SDS011;37459;51.416;5.502;2022-12-18T12:41:29;36.08;;;19.80;;
51368;SDS011;37459;51.416;5.502;2022-12-18T12:44:19;38.80;;;20.45;;
51368;SDS011;37459;51.416;5.502;2022-12-18T12:46:48;36.22;;;20.08;;
51368;SDS011;37459;51.416;5.502;2022-12-18T12:49:18;36.60;;;19.55;;
51368;SDS011;37459;51.416;5.502;2022-12-18T12:51:52;34.97;;;19.77;;
51368;SDS011;37459;51.416;5.502;2022-12-18T12:54:25;34.85;;;19.52;;
51368;SDS011;37459;51.416;5.502;2022-12-18T12:56:54;37.78;;;19.60;;
51368;SDS011;37459;51.416;5.502;2022-12-18T12:59:28;32.75;;;18.35;;
51368;SDS011;37459;51.416;5.502;2022-12-18T13:02:04;36.08;;;19.45;;
51368;SDS011;37459;51.416;5.502;2022-12-18T13:04:41;34.55;;;19.33;;
51368;SDS011;37459;51.416;5.502;2022-12-18T13:07:15;36.33;;;19.17;;
51368;SDS011;37459;51.416;5.502;2022-12-18T13:12:50;36.60;;;19.52;;
51368;SDS011;37459;51.416;5.502;2022-12-18T13:15:25;36.10;;;19.90;;
51368;SDS011;37459;51.416;5.502;2022-12-18T13:18:02;33.95;;;19.10;;
51368;SDS011;37459;51.416;5.502;2022-12-18T13:20:32;35.13;;;19.10;;
51368;SDS011;37459;51.416;5.502;2022-12-18T13:23:01;32.50;;;18.55;;
51368;SDS011;37459;51.416;5.502;2022-12-18T13:25:45;34.58;;;18.45;;
51368;SDS011;37459;51.416;5.502;2022-12-18T13:28:12;35.80;;;19.15;;
51368;SDS011;37459;51.416;5.502;2022-12-18T13:30:46;36.33;;;19.75;;
51368;SDS011;37459;51.416;5.502;2022-12-18T13:36:25;35.90;;;18.52;;
51368;SDS011;37459;51.416;5.502;2022-12-18T13:39:15;35.85;;;19.05;;
51368;SDS011;37459;51.416;5.502;2022-12-18T13:41:49;37.55;;;19.20;;
51368;SDS011;37459;51.416;5.502;2022-12-18T13:44:23;33.70;;;18.63;;
51368;SDS011;37459;51.416;5.502;2022-12-18T13:46:55;32.50;;;18.27;;
51368;SDS011;37459;51.416;5.502;2022-12-18T13:49:24;37.53;;;18.88;;
51368;SDS011;37459;51.416;5.502;2022-12-18T13:51:56;34.10;;;18.55;;
51368;SDS011;37459;51.416;5.502;2022-12-18T13:54:24;33.25;;;18.67;;
51368;SDS011;37459;51.416;5.502;2022-12-18T13:56:55;35.85;;;20.27;;
51368;SDS011;37459;51.416;5.502;2022-12-18T13:59:22;33.22;;;19.52;;
51368;SDS011;37459;51.416;5.502;2022-12-18T14:01:51;34.20;;;18.02;;
51368;SDS011;37459;51.416;5.502;2022-12-18T14:04:22;33.95;;;19.58;;
51368;SDS011;37459;51.416;5.502;2022-12-18T14:06:52;32.58;;;19.00;;
51368;SDS011;37459;51.416;5.502;2022-12-18T14:09:23;34.55;;;19.42;;
51368;SDS011;37459;51.416;5.502;2022-12-18T14:11:52;35.38;;;20.05;;
51368;SDS011;37459;51.416;5.502;2022-12-18T14:14:41;36.35;;;19.30;;
51368;SDS011;37459;51.416;5.502;2022-12-18T14:17:10;37.60;;;20.08;;
51368;SDS011;37459;51.416;5.502;2022-12-18T14:19:42;32.97;;;18.80;;
51368;SDS011;37459;51.416;5.502;2022-12-18T14:22:14;35.13;;;19.17;;
51368;SDS011;37459;51.416;5.502;2022-12-18T14:24:43;35.90;;;20.13;;
51368;SDS011;37459;51.416;5.502;2022-12-18T14:27:20;37.03;;;20.30;;
51368;SDS011;37459;51.416;5.502;2022-12-18T14:29:48;34.40;;;19.92;;
51368;SDS011;37459;51.416;5.502;2022-12-18T14:32:16;34.50;;;19.20;;
51368;SDS011;37459;51.416;5.502;2022-12-18T14:34:46;36.45;;;20.15;;
51368;SDS011;37459;51.416;5.502;2022-12-18T14:37:15;36.00;;;20.20;;
51368;SDS011;37459;51.416;5.502;2022-12-18T14:39:56;34.75;;;18.98;;
51368;SDS011;37459;51.416;5.502;2022-12-18T14:42:23;36.25;;;20.25;;
51368;SDS011;37459;51.416;5.502;2022-12-18T14:47:53;35.95;;;18.33;;
51368;SDS011;37459;51.416;5.502;2022-12-18T14:50:21;49.78;;;19.95;;
51368;SDS011;37459;51.416;5.502;2022-12-18T14:52:47;37.72;;;19.20;;